Time;durP1;ratioP1;P1;durP2;ratioP2;P2;SDS_P1;SDS_P2;PMS_P1;PMS_P2;Temp;Humidity;BMP_temperature;BMP_pressure;BME280_temperature;BME280_humidity;BME280_pressure;Samples;Min_cycle;Max_cycle;Signal;HPM_P1;HPM_P2
2021/09/08 00:01:09;;;;;;;19.98;15.43;;;18.90;99.90;;;;;;5016036;28;20033;-83
2021/09/08 00:03:35;;;;;;;19.70;15.00;;;18.80;99.90;;;;;;5015366;28;20029;-81
2021/09/08 00:06:00;;;;;;;22.05;16.33;;;18.90;99.90;;;;;;5015909;28;20034;-81
2021/09/08 00:08:26;;;;;;;24.77;15.85;;;18.80;99.90;;;;;;5018882;28;20033;-81
2021/09/08 00:10:52;;;;;;;24.95;16.35;;;18.70;99.90;;;;;;5015876;28;20033;-81
2021/09/08 00:13:18;;;;;;;18.20;14.48;;;18.70;99.90;;;;;;5016400;28;20045;-83
2021/09/08 00:15:47;;;;;;;23.23;15.07;;;18.70;99.90;;;;;;5015486;28;20034;-83
2021/09/08 00:18:12;;;;;;;26.38;15.80;;;18.60;99.90;;;;;;5003589;28;20033;-82
2021/09/08 00:20:38;;;;;;;20.77;16.02;;;18.60;99.90;;;;;;5013120;28;20470;-82
2021/09/08 00:23:06;;;;;;;23.40;15.45;;;18.60;99.90;;;;;;5015099;28;20018;-82
2021/09/08 00:25:33;;;;;;;24.25;17.05;;;18.60;99.90;;;;;;5014581;28;20029;-81
2021/09/08 00:27:58;;;;;;;22.88;15.65;;;18.50;99.90;;;;;;5015694;28;20037;-82
2021/09/08 00:30:24;;;;;;;20.65;15.82;;;18.50;99.90;;;;;;5015891;28;20026;-82
2021/09/08 00:32:50;;;;;;;18.88;13.75;;;18.50;99.90;;;;;;5014865;28;20030;-83
2021/09/08 00:35:15;;;;;;;21.27;16.52;;;18.50;99.90;;;;;;5015319;28;20358;-83
2021/09/08 00:37:41;;;;;;;22.05;15.43;;;18.50;99.90;;;;;;5014004;28;20057;-83
2021/09/08 00:40:09;;;;;;;18.52;15.60;;;18.40;99.90;;;;;;5014530;28;20053;-82
2021/09/08 00:42:35;;;;;;;19.10;15.70;;;18.40;99.90;;;;;;5014861;28;20048;-82
2021/09/08 00:45:00;;;;;;;21.42;16.15;;;18.40;99.90;;;;;;5014338;28;20051;-82
2021/09/08 00:47:26;;;;;;;21.90;14.95;;;18.40;99.90;;;;;;5014960;28;20093;-81
2021/09/08 00:49:51;;;;;;;20.75;15.63;;;18.30;99.90;;;;;;5015895;28;20034;-81
2021/09/08 00:52:18;;;;;;;18.88;14.95;;;18.30;99.90;;;;;;5017994;28;20061;-82
2021/09/08 00:54:49;;;;;;;19.70;15.57;;;18.20;99.90;;;;;;5021858;28;20044;-82
2021/09/08 00:57:16;;;;;;;23.75;16.70;;;18.30;99.90;;;;;;5024152;28;20021;-81
2021/09/08 00:59:43;;;;;;;23.05;16.73;;;18.30;99.90;;;;;;5014585;28;20056;-82
2021/09/08 01:02:11;;;;;;;20.95;16.40;;;18.20;99.90;;;;;;5013050;28;20479;-82
2021/09/08 01:04:37;;;;;;;20.65;16.20;;;18.20;99.90;;;;;;5013186;28;20428;-82
2021/09/08 01:07:05;;;;;;;23.95;16.27;;;18.20;99.90;;;;;;5017551;28;20048;-81
2021/09/08 01:09:31;;;;;;;20.10;16.13;;;18.20;99.90;;;;;;5016728;28;20033;-82
2021/09/08 01:12:03;;;;;;;19.27;16.15;;;18.20;99.90;;;;;;5014544;28;20474;-83
2021/09/08 01:14:28;;;;;;;22.52;15.88;;;18.10;99.90;;;;;;5013899;28;20121;-81
2021/09/08 01:16:56;;;;;;;23.13;17.58;;;18.10;99.90;;;;;;5014592;28;20481;-82
2021/09/08 01:19:23;;;;;;;18.27;15.20;;;18.00;99.90;;;;;;5014354;28;20056;-83
2021/09/08 01:21:49;;;;;;;24.60;16.45;;;18.00;99.90;;;;;;5013658;28;20524;-84
2021/09/08 01:24:14;;;;;;;21.13;15.95;;;17.90;99.90;;;;;;5014345;28;20026;-82
2021/09/08 01:26:42;;;;;;;20.70;15.18;;;17.90;99.90;;;;;;5014423;28;20026;-83
2021/09/08 01:29:09;;;;;;;22.20;17.08;;;17.90;99.90;;;;;;5015026;28;20029;-82
2021/09/08 01:31:35;;;;;;;28.98;17.83;;;17.90;99.90;;;;;;5014086;28;20033;-82
2021/09/08 01:34:01;;;;;;;25.50;18.10;;;17.90;99.90;;;;;;5014565;28;20022;-83
2021/09/08 01:36:27;;;;;;;25.80;17.60;;;17.80;99.90;;;;;;5012953;28;20109;-82
2021/09/08 01:38:52;;;;;;;26.25;16.90;;;17.90;99.90;;;;;;5014071;28;20114;-83
2021/09/08 01:41:18;;;;;;;27.00;16.42;;;17.90;99.90;;;;;;5013882;28;20025;-83
2021/09/08 01:43:45;;;;;;;21.10;16.35;;;17.90;99.90;;;;;;5013746;28;20022;-83
2021/09/08 01:46:21;;;;;;;21.33;16.08;;;17.80;99.90;;;;;;5014600;28;20036;-83
2021/09/08 01:48:47;;;;;;;25.88;18.95;;;17.90;99.90;;;;;;5012965;28;20018;-83
2021/09/08 01:51:13;;;;;;;22.60;16.83;;;17.80;99.90;;;;;;5013742;28;20558;-83
2021/09/08 01:53:39;;;;;;;23.33;16.65;;;17.80;99.90;;;;;;5013453;28;20022;-82
2021/09/08 01:56:05;;;;;;;24.33;17.48;;;17.80;99.90;;;;;;5013011;28;20034;-82
2021/09/08 01:58:31;;;;;;;30.13;19.52;;;17.70;99.90;;;;;;5013541;28;20040;-82
2021/09/08 02:00:57;;;;;;;24.10;18.35;;;17.70;99.90;;;;;;4999518;28;20105;-83
2021/09/08 02:03:23;;;;;;;25.38;18.00;;;17.70;99.90;;;;;;5012804;28;20112;-82
2021/09/08 02:05:48;;;;;;;22.77;16.95;;;17.70;99.90;;;;;;5012932;28;20064;-81
2021/09/08 02:08:14;;;;;;;26.25;18.73;;;17.70;99.90;;;;;;5013278;28;20029;-82
2021/09/08 02:10:39;;;;;;;25.00;17.08;;;17.70;99.90;;;;;;5011932;28;20033;-81
2021/09/08 02:13:06;;;;;;;27.50;18.40;;;17.70;99.90;;;;;;5012941;28;20030;-82
2021/09/08 02:15:32;;;;;;;22.45;17.35;;;17.60;99.90;;;;;;5012930;28;20034;-82
2021/09/08 02:17:57;;;;;;;23.60;17.05;;;17.60;99.90;;;;;;5012175;28;20026;-82
2021/09/08 02:20:23;;;;;;;26.85;18.35;;;18.00;99.90;;;;;;5013022;28;20113;-82
2021/09/08 02:22:49;;;;;;;22.23;17.98;;;17.60;99.90;;;;;;5013035;28;20037;-83
2021/09/08 02:25:15;;;;;;;26.55;18.40;;;17.60;99.90;;;;;;5014686;28;20030;-82
2021/09/08 02:27:40;;;;;;;26.15;18.20;;;17.60;99.90;;;;;;5013052;28;20050;-82
2021/09/08 02:30:10;;;;;;;21.80;17.58;;;17.50;99.90;;;;;;5013197;28;20034;-82
2021/09/08 02:32:36;;;;;;;26.55;18.08;;;17.50;99.90;;;;;;5012275;28;20059;-82
2021/09/08 02:35:01;;;;;;;25.33;18.42;;;17.50;99.90;;;;;;5012774;28;20478;-82
2021/09/08 02:37:27;;;;;;;28.60;18.38;;;17.50;99.90;;;;;;5013409;28;20022;-80
2021/09/08 02:39:53;;;;;;;27.80;19.20;;;17.50;99.90;;;;;;5015271;28;20530;-80
2021/09/08 02:42:18;;;;;;;29.40;19.30;;;17.40;99.90;;;;;;5014610;28;20382;-81
2021/09/08 02:44:44;;;;;;;27.17;19.20;;;17.40;99.90;;;;;;5021222;28;20026;-81
2021/09/08 02:47:12;;;;;;;29.05;19.55;;;17.40;99.90;;;;;;5015297;28;20145;-81
2021/09/08 02:49:37;;;;;;;24.80;18.75;;;17.40;99.90;;;;;;5013537;28;20030;-82
2021/09/08 02:52:03;;;;;;;28.55;19.33;;;17.40;99.90;;;;;;5012712;28;20061;-82
2021/09/08 02:54:29;;;;;;;25.02;17.98;;;17.40;99.90;;;;;;5012689;28;20045;-81
2021/09/08 02:56:57;;;;;;;26.83;18.67;;;17.30;99.90;;;;;;5013298;28;20018;-81
2021/09/08 02:59:22;;;;;;;23.00;18.17;;;17.30;99.90;;;;;;5015203;28;20033;-82
2021/09/08 03:01:48;;;;;;;26.95;19.20;;;17.30;99.90;;;;;;5019863;28;20381;-82
2021/09/08 03:04:13;;;;;;;25.13;18.75;;;17.30;99.90;;;;;;5019389;28;20493;-81
2021/09/08 03:06:39;;;;;;;27.48;18.67;;;17.20;99.90;;;;;;5018602;28;20033;-81
2021/09/08 03:09:05;;;;;;;26.15;18.90;;;17.20;99.90;;;;;;5020770;28;20041;-82
2021/09/08 03:11:31;;;;;;;27.10;19.17;;;17.20;99.90;;;;;;5024852;28;20026;-82
2021/09/08 03:13:56;;;;;;;30.90;18.52;;;17.20;99.90;;;;;;5018510;28;20022;-82
2021/09/08 03:16:22;;;;;;;23.27;18.00;;;17.20;99.90;;;;;;5022582;28;20032;-82
2021/09/08 03:18:48;;;;;;;25.33;19.00;;;17.20;99.90;;;;;;5019739;28;20470;-84
2021/09/08 03:21:13;;;;;;;25.52;18.20;;;17.10;99.90;;;;;;5018375;28;20084;-83
2021/09/08 03:23:39;;;;;;;26.75;19.15;;;17.10;99.90;;;;;;5018943;28;20026;-82
2021/09/08 03:26:05;;;;;;;28.02;19.02;;;17.10;99.90;;;;;;5018891;28;20025;-81
2021/09/08 03:28:31;;;;;;;25.90;19.65;;;17.00;99.90;;;;;;5018333;28;20022;-82
2021/09/08 03:30:56;;;;;;;28.40;19.52;;;17.00;99.90;;;;;;5018993;28;20029;-82
2021/09/08 03:33:22;;;;;;;27.00;18.63;;;17.00;99.90;;;;;;5019216;28;20026;-82
2021/09/08 03:35:48;;;;;;;27.65;20.20;;;17.00;99.90;;;;;;5018476;28;20041;-82
2021/09/08 03:38:13;;;;;;;26.40;19.77;;;17.00;99.90;;;;;;5021483;28;20363;-81
2021/09/08 03:40:39;;;;;;;28.08;18.88;;;16.90;99.90;;;;;;5020976;28;20030;-81
2021/09/08 03:43:05;;;;;;;25.98;18.98;;;16.90;99.90;;;;;;5018933;28;20489;-82
2021/09/08 03:45:33;;;;;;;26.83;19.98;;;16.90;99.90;;;;;;5019922;28;20106;-83
2021/09/08 03:47:58;;;;;;;25.83;20.23;;;16.80;99.90;;;;;;5018548;28;20112;-82
2021/09/08 03:50:24;;;;;;;30.15;20.75;;;16.70;99.90;;;;;;5019465;28;20617;-82
2021/09/08 03:52:50;;;;;;;28.15;19.67;;;16.70;99.90;;;;;;5018423;28;20037;-81
2021/09/08 03:55:16;;;;;;;27.73;18.73;;;16.70;99.90;;;;;;5018367;28;20084;-83
2021/09/08 03:57:42;;;;;;;28.83;19.23;;;16.70;99.90;;;;;;5018796;28;20022;-82
2021/09/08 04:00:09;;;;;;;31.70;19.98;;;16.70;99.90;;;;;;5018473;28;20022;-82
2021/09/08 04:02:35;;;;;;;26.92;19.05;;;16.70;99.90;;;;;;5017864;28;20050;-81
2021/09/08 04:05:01;;;;;;;31.27;19.60;;;16.60;99.90;;;;;;5018565;28;20471;-82
2021/09/08 04:07:26;;;;;;;29.48;19.38;;;16.60;99.90;;;;;;5018908;28;20029;-81
2021/09/08 04:09:52;;;;;;;26.55;18.88;;;16.60;99.90;;;;;;5017860;28;20026;-82
2021/09/08 04:12:18;;;;;;;29.15;20.27;;;16.50;99.90;;;;;;5015921;28;20030;-83
2021/09/08 04:14:44;;;;;;;31.20;20.83;;;16.50;99.90;;;;;;5015296;28;20038;-83
2021/09/08 04:17:09;;;;;;;29.40;20.35;;;16.50;99.90;;;;;;5015004;28;20026;-83
2021/09/08 04:19:35;;;;;;;30.63;20.48;;;16.50;99.90;;;;;;5015229;28;20038;-82
2021/09/08 04:22:01;;;;;;;33.65;20.25;;;16.50;99.90;;;;;;5015361;28;20574;-82
2021/09/08 04:24:26;;;;;;;27.60;20.55;;;16.50;99.90;;;;;;5014703;28;20030;-82
2021/09/08 04:26:52;;;;;;;30.35;20.95;;;16.50;99.90;;;;;;5015598;28;20034;-82
2021/09/08 04:29:18;;;;;;;28.85;20.48;;;16.40;99.90;;;;;;5015412;28;20066;-82
2021/09/08 04:31:43;;;;;;;36.17;22.02;;;16.40;99.90;;;;;;5022458;28;20022;-80
2021/09/08 04:34:09;;;;;;;29.08;18.90;;;16.40;99.90;;;;;;5027473;28;20025;-82
2021/09/08 04:36:35;;;;;;;32.15;20.98;;;16.40;99.90;;;;;;5015277;28;20382;-80
2021/09/08 04:39:02;;;;;;;31.70;21.40;;;16.40;99.90;;;;;;5014671;28;20022;-84
2021/09/08 04:41:27;;;;;;;29.73;21.02;;;16.40;99.90;;;;;;5015123;28;20044;-82
2021/09/08 04:43:53;;;;;;;31.00;21.75;;;16.40;99.90;;;;;;5014310;28;20129;-82
2021/09/08 04:46:19;;;;;;;42.08;22.42;;;16.40;99.90;;;;;;5014277;28;20026;-83
2021/09/08 04:48:44;;;;;;;30.85;21.27;;;16.30;99.90;;;;;;5014820;28;20030;-83
2021/09/08 04:51:10;;;;;;;32.47;21.08;;;16.30;99.90;;;;;;5014134;28;20042;-81
2021/09/08 04:53:36;;;;;;;33.00;22.42;;;16.30;99.90;;;;;;5014367;28;20026;-83
2021/09/08 04:56:01;;;;;;;29.95;21.90;;;16.30;99.90;;;;;;5019025;28;20042;-83
2021/09/08 04:58:27;;;;;;;34.97;21.83;;;16.30;99.90;;;;;;5016363;28;20127;-82
2021/09/08 05:00:52;;;;;;;29.58;22.08;;;16.30;99.90;;;;;;5015172;28;20064;-82
2021/09/08 05:03:18;;;;;;;34.83;23.08;;;16.30;99.90;;;;;;5014824;28;20022;-82
2021/09/08 05:05:44;;;;;;;39.30;23.55;;;16.30;99.90;;;;;;5014293;28;20041;-83
2021/09/08 05:08:09;;;;;;;32.13;21.48;;;16.30;99.90;;;;;;5017693;28;20057;-81
2021/09/08 05:10:35;;;;;;;35.13;21.27;;;16.30;99.90;;;;;;5018509;28;20030;-82
2021/09/08 05:13:00;;;;;;;34.70;23.13;;;16.20;99.90;;;;;;5020735;28;20030;-82
2021/09/08 05:15:26;;;;;;;36.22;22.15;;;16.20;99.90;;;;;;5018698;28;20367;-81
2021/09/08 05:17:52;;;;;;;29.15;21.10;;;16.30;99.90;;;;;;5015189;28;20025;-81
2021/09/08 05:20:17;;;;;;;30.00;22.30;;;16.30;99.90;;;;;;5015781;28;20106;-82
2021/09/08 05:22:43;;;;;;;31.58;21.63;;;16.30;99.90;;;;;;5014886;28;20117;-81
2021/09/08 05:25:09;;;;;;;33.85;21.42;;;16.30;99.90;;;;;;5014306;28;20450;-82
2021/09/08 05:27:34;;;;;;;28.00;20.05;;;16.20;99.90;;;;;;5006082;28;20046;-81
2021/09/08 05:30:00;;;;;;;30.33;22.35;;;16.30;99.90;;;;;;5006169;28;20067;-81
2021/09/08 05:32:26;;;;;;;31.73;21.60;;;16.30;99.90;;;;;;5008067;28;20161;-82
2021/09/08 05:34:53;;;;;;;34.20;22.95;;;16.30;99.90;;;;;;5005658;28;20549;-81
2021/09/08 05:37:18;;;;;;;34.15;22.15;;;16.30;99.90;;;;;;5002069;28;20072;-82
2021/09/08 05:39:44;;;;;;;36.30;23.08;;;16.40;99.90;;;;;;5003730;28;20022;-81
2021/09/08 05:42:09;;;;;;;35.85;23.20;;;16.40;99.90;;;;;;5002183;28;20025;-81
2021/09/08 05:44:35;;;;;;;31.48;21.42;;;16.40;99.90;;;;;;5000458;28;20080;-81
2021/09/08 05:47:00;;;;;;;31.17;21.55;;;16.40;99.90;;;;;;4997932;28;20098;-82
2021/09/08 05:49:26;;;;;;;33.75;20.98;;;16.50;99.90;;;;;;5000777;28;20046;-82
2021/09/08 05:51:52;;;;;;;37.72;22.50;;;16.50;99.90;;;;;;4998913;28;20046;-83
2021/09/08 05:54:17;;;;;;;34.47;23.63;;;16.60;99.90;;;;;;5001485;28;20077;-84
2021/09/08 05:56:43;;;;;;;31.45;22.10;;;16.50;99.90;;;;;;5001197;28;20079;-81
2021/09/08 05:59:08;;;;;;;30.95;21.50;;;16.60;99.90;;;;;;5003213;28;20089;-82
2021/09/08 06:01:34;;;;;;;33.55;21.40;;;16.60;99.90;;;;;;5014007;28;20040;-81
2021/09/08 06:03:59;;;;;;;31.98;22.02;;;16.70;99.90;;;;;;5013841;28;20105;-81
2021/09/08 06:06:25;;;;;;;32.22;21.70;;;16.70;99.90;;;;;;5012180;28;20064;-82
2021/09/08 06:08:50;;;;;;;35.35;21.17;;;16.70;99.90;;;;;;5011226;28;20053;-82
2021/09/08 06:11:16;;;;;;;33.40;21.30;;;16.70;99.90;;;;;;5004850;28;20133;-82
2021/09/08 06:13:41;;;;;;;31.35;21.17;;;16.80;99.90;;;;;;5011177;28;20049;-81
2021/09/08 06:16:07;;;;;;;30.95;22.45;;;16.80;99.90;;;;;;5009837;28;20041;-82
2021/09/08 06:18:32;;;;;;;29.73;21.85;;;16.90;99.90;;;;;;5012579;28;20029;-82
2021/09/08 06:20:58;;;;;;;26.50;19.83;;;16.90;99.90;;;;;;5009286;28;20022;-83
2021/09/08 06:23:23;;;;;;;38.55;23.65;;;17.00;99.90;;;;;;5011638;28;20378;-82
2021/09/08 06:25:49;;;;;;;30.95;21.05;;;17.10;99.90;;;;;;5011740;28;20029;-81
2021/09/08 06:28:15;;;;;;;34.30;22.48;;;17.10;99.90;;;;;;5012394;28;20025;-82
2021/09/08 06:30:41;;;;;;;35.47;21.40;;;17.20;99.90;;;;;;5012397;28;20018;-82
2021/09/08 06:33:06;;;;;;;32.03;21.17;;;17.20;99.90;;;;;;5012799;28;20026;-82
2021/09/08 06:35:32;;;;;;;31.02;20.98;;;17.30;99.90;;;;;;5012247;28;20375;-81
2021/09/08 06:37:57;;;;;;;29.40;20.38;;;17.30;99.90;;;;;;5008619;28;20121;-80
2021/09/08 06:40:23;;;;;;;32.17;22.08;;;17.40;99.90;;;;;;5011534;28;20491;-80
2021/09/08 06:42:49;;;;;;;31.73;20.48;;;17.40;99.90;;;;;;5011584;28;20022;-79
2021/09/08 06:45:16;;;;;;;27.23;20.13;;;17.50;99.90;;;;;;5010743;28;20018;-81
2021/09/08 06:47:42;;;;;;;32.92;21.23;;;17.50;99.90;;;;;;5010476;28;20445;-82
2021/09/08 06:50:08;;;;;;;33.35;20.98;;;17.60;99.90;;;;;;5010959;28;20030;-82
2021/09/08 06:52:34;;;;;;;37.40;21.67;;;17.60;99.90;;;;;;5010754;28;20406;-81
2021/09/08 06:54:59;;;;;;;35.13;21.80;;;17.60;99.90;;;;;;5011877;28;20030;-80
2021/09/08 06:57:25;;;;;;;29.52;21.52;;;17.70;99.90;;;;;;5013173;28;20100;-81
2021/09/08 06:59:51;;;;;;;32.17;21.77;;;17.70;99.90;;;;;;5011570;28;20029;-81
2021/09/08 07:02:17;;;;;;;31.73;21.90;;;17.80;99.90;;;;;;5012384;28;20033;-81
2021/09/08 07:04:42;;;;;;;30.30;21.60;;;17.80;99.90;;;;;;5011623;28;20497;-81
2021/09/08 07:07:08;;;;;;;35.15;22.90;;;17.90;99.90;;;;;;5011296;28;20026;-80
2021/09/08 07:09:33;;;;;;;26.65;20.75;;;17.90;99.90;;;;;;5010385;28;20033;-80
2021/09/08 07:11:59;;;;;;;30.70;21.98;;;18.00;99.90;;;;;;5009685;28;20025;-80
2021/09/08 07:14:24;;;;;;;32.88;21.38;;;18.10;99.90;;;;;;5011882;28;20026;-80
2021/09/08 07:16:50;;;;;;;29.80;21.27;;;18.10;99.90;;;;;;5012033;28;20414;-80
2021/09/08 07:19:15;;;;;;;31.58;21.25;;;18.10;99.90;;;;;;5010789;28;20025;-81
2021/09/08 07:21:41;;;;;;;40.30;22.42;;;18.20;99.90;;;;;;5011694;28;20030;-79
2021/09/08 07:24:06;;;;;;;26.77;19.90;;;18.20;99.90;;;;;;5013235;28;20025;-79
2021/09/08 07:26:33;;;;;;;35.38;21.30;;;18.30;99.90;;;;;;5017758;28;20030;-81
2021/09/08 07:29:04;;;;;;;29.30;20.55;;;18.30;99.90;;;;;;5017506;28;20099;-79
2021/09/08 07:31:30;;;;;;;28.65;20.42;;;18.40;99.90;;;;;;5015213;28;20049;-81
2021/09/08 07:33:57;;;;;;;34.20;20.83;;;18.50;99.90;;;;;;5016970;28;20025;-80
2021/09/08 07:36:23;;;;;;;29.92;21.30;;;18.50;99.90;;;;;;5023881;28;20044;-81
2021/09/08 07:38:49;;;;;;;28.50;20.60;;;18.60;99.90;;;;;;5016597;28;20026;-77
2021/09/08 07:41:19;;;;;;;30.67;20.27;;;18.70;99.90;;;;;;5012582;28;20026;-78
2021/09/08 07:43:45;;;;;;;25.23;19.67;;;18.70;99.90;;;;;;5012546;28;20109;-77
2021/09/08 07:46:11;;;;;;;32.20;20.63;;;18.80;99.90;;;;;;5013498;28;20107;-77
2021/09/08 07:48:38;;;;;;;27.95;21.02;;;18.90;99.90;;;;;;5010434;28;20022;-82
2021/09/08 07:51:04;;;;;;;29.00;20.13;;;18.90;99.90;;;;;;4996774;28;20099;-79
2021/09/08 07:53:29;;;;;;;30.77;21.30;;;19.00;99.90;;;;;;4998070;28;20050;-78
2021/09/08 07:55:55;;;;;;;26.17;19.80;;;19.00;99.90;;;;;;5003428;28;20042;-79
2021/09/08 07:58:21;;;;;;;27.50;19.65;;;19.10;99.90;;;;;;4998416;28;20018;-83
2021/09/08 08:00:46;;;;;;;29.23;19.55;;;19.10;99.90;;;;;;5002226;28;20092;-85
2021/09/08 08:03:12;;;;;;;32.65;21.25;;;19.20;99.90;;;;;;5012596;28;20062;-79
2021/09/08 08:05:38;;;;;;;31.85;21.20;;;19.30;99.90;;;;;;5008212;28;20092;-78
2021/09/08 08:08:04;;;;;;;43.67;22.63;;;19.30;99.90;;;;;;4998647;28;20027;-77
2021/09/08 08:10:30;;;;;;;37.53;21.60;;;19.30;99.90;;;;;;4999376;28;20018;-78
2021/09/08 08:12:56;;;;;;;28.65;19.15;;;19.40;99.90;;;;;;5003517;28;20042;-79
2021/09/08 08:15:21;;;;;;;29.73;20.55;;;19.50;99.90;;;;;;4999292;28;20030;-78
2021/09/08 08:17:47;;;;;;;26.60;19.85;;;19.50;99.90;;;;;;4999361;28;20015;-78
2021/09/08 08:20:14;;;;;;;28.92;20.30;;;19.60;99.90;;;;;;4995560;28;20458;-79
2021/09/08 08:22:41;;;;;;;28.63;18.90;;;19.70;99.90;;;;;;4999335;28;20092;-80
2021/09/08 08:25:10;;;;;;;32.53;19.92;;;19.70;99.90;;;;;;5000759;28;20064;-80
2021/09/08 08:27:36;;;;;;;25.88;18.63;;;19.80;99.90;;;;;;4997363;28;20027;-79
2021/09/08 08:30:02;;;;;;;30.38;19.45;;;19.90;99.90;;;;;;5000955;28;20026;-79
2021/09/08 08:32:27;;;;;;;29.33;20.75;;;19.90;99.90;;;;;;5008708;28;20030;-79
2021/09/08 08:34:53;;;;;;;27.23;20.58;;;20.00;99.90;;;;;;5009624;28;20128;-78
2021/09/08 08:37:19;;;;;;;29.17;20.00;;;20.00;99.90;;;;;;5000025;28;20018;-78
2021/09/08 08:39:44;;;;;;;33.00;18.17;;;20.10;99.90;;;;;;5004976;28;20501;-80
2021/09/08 08:42:19;;;;;;;24.35;18.33;;;20.20;99.90;;;;;;5014786;28;20482;-79
2021/09/08 08:44:45;;;;;;;31.25;19.50;;;20.20;99.90;;;;;;5013764;28;20482;-78
2021/09/08 08:47:10;;;;;;;31.48;19.80;;;20.30;99.90;;;;;;5014890;28;20037;-79
2021/09/08 08:49:36;;;;;;;26.00;19.08;;;20.30;99.90;;;;;;5002374;28;20034;-80
2021/09/08 08:52:02;;;;;;;27.20;19.02;;;20.40;99.90;;;;;;5007608;28;20046;-78
2021/09/08 08:54:27;;;;;;;27.10;19.20;;;20.40;99.90;;;;;;4999753;28;20043;-80
2021/09/08 08:56:53;;;;;;;28.10;19.25;;;20.50;99.90;;;;;;4998745;28;20037;-79
2021/09/08 08:59:19;;;;;;;30.48;20.27;;;20.50;99.90;;;;;;4999784;28;20029;-79
2021/09/08 09:01:46;;;;;;;27.85;18.90;;;20.70;99.90;;;;;;5006451;28;20033;-78
2021/09/08 09:04:15;;;;;;;26.85;19.25;;;20.70;99.90;;;;;;5004785;28;20039;-78
2021/09/08 09:06:42;;;;;;;31.73;19.73;;;20.80;99.90;;;;;;4992606;28;20026;-78
2021/09/08 09:09:14;;;;;;;25.80;18.27;;;20.90;99.90;;;;;;4997281;28;20022;-80
2021/09/08 09:11:42;;;;;;;25.27;19.63;;;21.00;99.90;;;;;;4999588;28;20409;-79
2021/09/08 09:14:10;;;;;;;24.05;18.17;;;21.00;99.90;;;;;;5001305;28;20018;-80
2021/09/08 09:16:39;;;;;;;29.52;20.25;;;21.10;99.90;;;;;;4998109;28;20065;-79
2021/09/08 09:19:05;;;;;;;28.13;19.92;;;21.20;99.90;;;;;;4996801;28;20022;-79
2021/09/08 09:21:31;;;;;;;25.55;17.77;;;21.20;99.90;;;;;;5005500;28;22213;-78
2021/09/08 09:23:59;;;;;;;29.40;20.20;;;21.30;99.90;;;;;;5013656;28;20022;-78
2021/09/08 09:26:37;;;;;;;24.00;18.45;;;21.30;99.90;;;;;;5010824;28;20025;-78
2021/09/08 09:29:09;;;;;;;27.48;19.35;;;21.40;99.90;;;;;;5010939;28;20022;-77
2021/09/08 09:31:53;;;;;;;26.48;20.25;;;21.40;99.90;;;;;;5011631;28;20029;-78
2021/09/08 09:34:19;;;;;;;28.02;20.00;;;21.50;99.90;;;;;;5009641;28;20022;-78
2021/09/08 09:36:44;;;;;;;26.08;20.35;;;21.60;99.90;;;;;;5011565;28;20030;-77
2021/09/08 09:39:10;;;;;;;28.88;19.83;;;21.70;99.90;;;;;;5011925;28;20014;-78
2021/09/08 09:41:36;;;;;;;28.63;19.02;;;21.80;99.90;;;;;;5012289;28;20037;-77
2021/09/08 09:44:09;;;;;;;22.88;17.67;;;21.90;99.90;;;;;;5013293;28;20026;-78
2021/09/08 09:46:39;;;;;;;24.08;17.63;;;21.80;99.90;;;;;;5012570;28;20030;-78
2021/09/08 09:49:04;;;;;;;27.17;18.58;;;21.90;99.90;;;;;;5013056;28;21586;-76
2021/09/08 09:51:30;;;;;;;22.90;18.00;;;22.00;99.90;;;;;;5013192;28;20042;-77
2021/09/08 09:53:56;;;;;;;28.02;18.60;;;22.00;99.90;;;;;;5012264;28;20029;-78
2021/09/08 09:56:22;;;;;;;25.58;18.52;;;22.10;99.90;;;;;;5014015;28;20034;-78
2021/09/08 09:58:48;;;;;;;25.63;17.20;;;22.10;99.90;;;;;;5015276;28;20041;-77
2021/09/08 10:01:13;;;;;;;27.70;18.13;;;22.20;99.90;;;;;;5017128;28;20045;-78
2021/09/08 10:03:43;;;;;;;23.42;18.10;;;22.30;99.90;;;;;;5010941;28;20026;-80
2021/09/08 10:06:10;;;;;;;25.83;17.30;;;22.40;99.90;;;;;;5013815;28;20030;-76
2021/09/08 10:08:42;;;;;;;32.63;18.10;;;22.40;99.90;;;;;;5012094;28;20042;-77
2021/09/08 10:11:10;;;;;;;24.02;17.08;;;22.40;99.90;;;;;;5007532;28;20028;-76
2021/09/08 10:13:41;;;;;;;24.92;17.42;;;22.60;99.90;;;;;;5008946;28;20382;-75
2021/09/08 10:16:07;;;;;;;22.83;17.85;;;22.60;99.90;;;;;;5006912;28;20037;-76
2021/09/08 10:18:35;;;;;;;22.90;17.15;;;22.70;99.90;;;;;;5011204;28;20033;-76
2021/09/08 10:21:06;;;;;;;24.42;16.90;;;22.80;99.90;;;;;;5011492;28;20382;-75
2021/09/08 10:23:39;;;;;;;25.80;16.10;;;22.90;99.90;;;;;;5011467;28;20080;-75
2021/09/08 10:26:16;;;;;;;19.58;15.55;;;23.00;99.90;;;;;;5012933;28;20041;-76
2021/09/08 10:28:45;;;;;;;21.83;14.85;;;23.00;99.90;;;;;;5012124;28;20026;-76
2021/09/08 10:31:12;;;;;;;22.77;14.50;;;23.10;99.90;;;;;;5012190;28;20026;-77
2021/09/08 10:33:42;;;;;;;23.67;14.18;;;23.20;99.90;;;;;;5012788;28;20497;-78
2021/09/08 10:36:12;;;;;;;22.02;14.95;;;23.30;99.90;;;;;;5013127;28;20050;-79
2021/09/08 10:38:38;;;;;;;17.75;14.13;;;23.30;99.90;;;;;;5012644;28;20421;-80
2021/09/08 10:41:06;;;;;;;20.25;14.77;;;23.40;99.90;;;;;;5012634;28;20026;-78
2021/09/08 10:43:37;;;;;;;22.52;15.85;;;23.50;99.90;;;;;;5011903;28;20013;-77
2021/09/08 10:46:05;;;;;;;19.33;14.65;;;23.70;99.90;;;;;;5009602;28;20120;-78
2021/09/08 10:48:46;;;;;;;24.02;15.93;;;23.50;99.90;;;;;;5011146;28;20025;-76
2021/09/08 10:51:33;;;;;;;23.75;14.68;;;23.60;99.90;;;;;;5004067;28;20495;-76
2021/09/08 10:54:05;;;;;;;20.15;13.95;;;23.60;99.90;;;;;;5001063;28;20352;-75
2021/09/08 10:56:41;;;;;;;22.45;14.48;;;23.70;99.90;;;;;;5012457;28;20034;-76
2021/09/08 10:59:07;;;;;;;19.05;14.15;;;23.80;99.90;;;;;;5000903;28;20057;-77
2021/09/08 11:01:33;;;;;;;17.88;14.10;;;23.80;99.90;;;;;;5012502;28;20058;-77
2021/09/08 11:03:58;;;;;;;23.92;14.48;;;23.90;99.90;;;;;;5011772;28;20026;-75
2021/09/08 11:06:43;;;;;;;17.25;12.95;;;24.00;99.90;;;;;;5010507;28;20036;-76
2021/09/08 11:09:11;;;;;;;16.63;13.82;;;24.10;99.90;;;;;;5012134;28;20026;-77
2021/09/08 11:11:54;;;;;;;14.98;12.82;;;24.20;99.90;;;;;;5009741;28;20041;-77
2021/09/08 11:14:21;;;;;;;18.58;13.48;;;24.20;99.90;;;;;;5004046;28;20034;-77
2021/09/08 11:16:47;;;;;;;23.23;12.68;;;24.30;99.90;;;;;;5011729;28;20030;-76
2021/09/08 11:19:14;;;;;;;16.58;11.90;;;24.40;99.90;;;;;;5008542;28;20088;-78
2021/09/08 11:21:40;;;;;;;14.70;11.18;;;24.40;99.90;;;;;;5005539;28;20038;-76
2021/09/08 11:24:13;;;;;;;14.40;10.65;;;24.40;99.90;;;;;;5007633;28;20058;-77
2021/09/08 11:26:40;;;;;;;16.17;12.65;;;24.40;99.90;;;;;;4998951;28;20414;-78
2021/09/08 11:29:10;;;;;;;18.58;11.35;;;24.50;99.60;;;;;;5003851;28;20073;-77
2021/09/08 11:31:37;;;;;;;17.80;11.55;;;24.50;99.60;;;;;;5003305;28;20041;-77
2021/09/08 11:34:04;;;;;;;15.73;12.38;;;24.60;99.40;;;;;;5003162;28;20142;-77
2021/09/08 11:36:31;;;;;;;18.30;12.43;;;24.60;99.50;;;;;;5005553;28;20445;-76
2021/09/08 11:38:59;;;;;;;13.65;11.20;;;24.60;99.30;;;;;;5005726;28;20026;-78
2021/09/08 11:41:26;;;;;;;12.45;10.32;;;24.60;99.20;;;;;;5015282;28;20045;-77
2021/09/08 11:43:55;;;;;;;17.88;11.40;;;24.70;98.70;;;;;;5016313;28;20056;-76
2021/09/08 11:46:29;;;;;;;13.13;11.00;;;24.80;98.80;;;;;;5015510;28;20474;-76
2021/09/08 11:49:08;;;;;;;15.27;13.07;;;24.80;98.40;;;;;;5017874;28;20032;-78
2021/09/08 11:51:36;;;;;;;16.55;12.32;;;24.90;98.50;;;;;;5015842;28;20075;-78
2021/09/08 11:54:07;;;;;;;11.70;10.20;;;24.90;98.60;;;;;;5015127;28;20026;-76
2021/09/08 11:56:33;;;;;;;15.63;12.48;;;25.00;98.60;;;;;;5015666;28;20397;-78
2021/09/08 11:59:00;;;;;;;13.95;11.15;;;25.00;98.20;;;;;;5015538;28;20026;-77
2021/09/08 12:01:34;;;;;;;15.55;10.80;;;25.10;98.30;;;;;;5013007;28;20495;-77
2021/09/08 12:04:01;;;;;;;15.43;11.50;;;25.10;97.60;;;;;;4999502;28;20062;-77
2021/09/08 12:06:28;;;;;;;12.85;11.48;;;25.20;97.60;;;;;;5003101;28;20030;-76
2021/09/08 12:09:16;;;;;;;18.10;12.43;;;25.30;97.30;;;;;;5006157;28;20077;-77
2021/09/08 12:11:45;;;;;;;12.45;11.00;;;25.30;97.00;;;;;;5006239;28;20113;-76
2021/09/08 12:14:32;;;;;;;15.75;11.15;;;25.40;97.00;;;;;;4999719;28;20042;-75
2021/09/08 12:17:12;;;;;;;12.02;9.52;;;25.50;96.80;;;;;;5011468;28;20097;-76
2021/09/08 12:19:40;;;;;;;10.25;9.25;;;25.60;96.50;;;;;;5012226;28;20487;-77
2021/09/08 12:22:13;;;;;;;13.90;8.10;;;25.70;95.80;;;;;;5010090;28;20038;-78
2021/09/08 12:24:42;;;;;;;25.70;10.70;;;25.70;95.60;;;;;;5013120;28;20105;-77
2021/09/08 12:27:24;;;;;;;12.70;9.80;;;25.80;95.30;;;;;;5013208;28;20026;-77